sensor_id;sensor_type;location;lat;lon;timestamp;P1;durP1;ratioP1;P2;durP2;ratioP2
37645;SDS011;23489;49.600;6.138;2022-11-18T00:01:32;10.20;;;4.28;;
37645;SDS011;23489;49.600;6.138;2022-11-18T00:03:59;12.52;;;4.57;;
37645;SDS011;23489;49.600;6.138;2022-11-18T00:06:26;9.03;;;3.97;;
37645;SDS011;23489;49.600;6.138;2022-11-18T00:08:53;9.85;;;4.03;;
37645;SDS011;23489;49.600;6.138;2022-11-18T00:11:20;10.80;;;4.45;;
37645;SDS011;23489;49.600;6.138;2022-11-18T00:14:11;13.48;;;4.82;;
37645;SDS011;23489;49.600;6.138;2022-11-18T00:16:45;10.45;;;4.32;;
37645;SDS011;23489;49.600;6.138;2022-11-18T00:19:12;11.30;;;4.40;;
37645;SDS011;23489;49.600;6.138;2022-11-18T00:21:38;11.32;;;4.85;;
37645;SDS011;23489;49.600;6.138;2022-11-18T00:24:04;10.63;;;4.13;;
37645;SDS011;23489;49.600;6.138;2022-11-18T00:26:29;14.30;;;4.72;;
37645;SDS011;23489;49.600;6.138;2022-11-18T00:28:55;10.95;;;4.30;;
37645;SDS011;23489;49.600;6.138;2022-11-18T00:31:21;12.63;;;4.80;;
37645;SDS011;23489;49.600;6.138;2022-11-18T00:33:46;10.77;;;4.18;;
37645;SDS011;23489;49.600;6.138;2022-11-18T00:36:12;13.80;;;4.90;;
37645;SDS011;23489;49.600;6.138;2022-11-18T00:38:38;15.10;;;5.03;;
37645;SDS011;23489;49.600;6.138;2022-11-18T00:41:11;10.13;;;4.75;;
37645;SDS011;23489;49.600;6.138;2022-11-18T00:43:39;12.25;;;4.55;;
37645;SDS011;23489;49.600;6.138;2022-11-18T00:46:07;8.75;;;4.40;;
37645;SDS011;23489;49.600;6.138;2022-11-18T00:48:34;10.63;;;4.68;;
37645;SDS011;23489;49.600;6.138;2022-11-18T00:53:42;10.80;;;4.57;;
37645;SDS011;23489;49.600;6.138;2022-11-18T00:56:08;11.00;;;4.13;;
37645;SDS011;23489;49.600;6.138;2022-11-18T00:58:34;13.40;;;4.00;;
37645;SDS011;23489;49.600;6.138;2022-11-18T01:01:00;11.68;;;4.18;;
37645;SDS011;23489;49.600;6.138;2022-11-18T01:03:26;12.18;;;3.97;;
37645;SDS011;23489;49.600;6.138;2022-11-18T01:05:53;12.07;;;3.67;;
37645;SDS011;23489;49.600;6.138;2022-11-18T01:08:19;14.13;;;4.40;;
37645;SDS011;23489;49.600;6.138;2022-11-18T01:10:45;13.05;;;4.07;;
37645;SDS011;23489;49.600;6.138;2022-11-18T01:13:13;9.77;;;3.90;;
37645;SDS011;23489;49.600;6.138;2022-11-18T01:15:44;14.95;;;4.75;;
37645;SDS011;23489;49.600;6.138;2022-11-18T01:18:18;14.45;;;4.57;;
37645;SDS011;23489;49.600;6.138;2022-11-18T01:20:46;12.50;;;4.07;;
37645;SDS011;23489;49.600;6.138;2022-11-18T01:23:12;13.63;;;4.60;;
37645;SDS011;23489;49.600;6.138;2022-11-18T01:25:39;9.63;;;4.10;;
37645;SDS011;23489;49.600;6.138;2022-11-18T01:28:07;13.53;;;4.00;;
37645;SDS011;23489;49.600;6.138;2022-11-18T01:30:33;13.13;;;4.13;;
37645;SDS011;23489;49.600;6.138;2022-11-18T01:33:00;9.57;;;3.78;;
37645;SDS011;23489;49.600;6.138;2022-11-18T01:35:26;8.27;;;3.17;;
37645;SDS011;23489;49.600;6.138;2022-11-18T01:37:52;9.27;;;3.27;;
37645;SDS011;23489;49.600;6.138;2022-11-18T01:40:17;5.85;;;2.53;;
37645;SDS011;23489;49.600;6.138;2022-11-18T01:42:43;6.33;;;2.57;;
37645;SDS011;23489;49.600;6.138;2022-11-18T01:48:17;6.65;;;2.83;;
37645;SDS011;23489;49.600;6.138;2022-11-18T01:50:49;6.43;;;2.72;;
37645;SDS011;23489;49.600;6.138;2022-11-18T01:53:26;5.15;;;2.47;;
37645;SDS011;23489;49.600;6.138;2022-11-18T01:55:56;5.53;;;2.47;;
37645;SDS011;23489;49.600;6.138;2022-11-18T01:58:28;6.03;;;2.42;;
37645;SDS011;23489;49.600;6.138;2022-11-18T02:00:57;5.75;;;2.30;;
37645;SDS011;23489;49.600;6.138;2022-11-18T02:03:24;5.80;;;2.33;;
37645;SDS011;23489;49.600;6.138;2022-11-18T02:05:50;4.05;;;2.17;;
37645;SDS011;23489;49.600;6.138;2022-11-18T02:08:18;6.85;;;2.20;;
37645;SDS011;23489;49.600;6.138;2022-11-18T02:10:44;5.13;;;2.20;;
37645;SDS011;23489;49.600;6.138;2022-11-18T02:13:10;5.03;;;2.30;;
37645;SDS011;23489;49.600;6.138;2022-11-18T02:15:40;4.47;;;1.90;;
37645;SDS011;23489;49.600;6.138;2022-11-18T02:18:14;5.00;;;2.10;;
37645;SDS011;23489;49.600;6.138;2022-11-18T02:20:50;4.55;;;2.00;;
37645;SDS011;23489;49.600;6.138;2022-11-18T02:34:21;4.87;;;1.80;;
37645;SDS011;23489;49.600;6.138;2022-11-18T02:36:52;5.60;;;1.98;;
37645;SDS011;23489;49.600;6.138;2022-11-18T02:39:32;4.72;;;1.90;;
37645;SDS011;23489;49.600;6.138;2022-11-18T02:42:03;4.23;;;1.80;;
37645;SDS011;23489;49.600;6.138;2022-11-18T02:44:33;7.15;;;2.50;;
37645;SDS011;23489;49.600;6.138;2022-11-18T02:47:05;5.28;;;1.85;;
37645;SDS011;23489;49.600;6.138;2022-11-18T02:49:36;3.45;;;1.70;;
37645;SDS011;23489;49.600;6.138;2022-11-18T02:52:05;5.53;;;1.90;;
37645;SDS011;23489;49.600;6.138;2022-11-18T02:54:34;4.38;;;1.60;;
37645;SDS011;23489;49.600;6.138;2022-11-18T02:57:03;4.47;;;1.80;;
37645;SDS011;23489;49.600;6.138;2022-11-18T02:59:29;5.13;;;1.80;;
37645;SDS011;23489;49.600;6.138;2022-11-18T03:01:55;4.72;;;1.77;;
37645;SDS011;23489;49.600;6.138;2022-11-18T03:04:20;3.17;;;1.97;;
37645;SDS011;23489;49.600;6.138;2022-11-18T03:07:06;4.78;;;1.98;;
37645;SDS011;23489;49.600;6.138;2022-11-18T03:09:38;3.47;;;2.10;;
37645;SDS011;23489;49.600;6.138;2022-11-18T03:12:14;5.70;;;2.42;;
37645;SDS011;23489;49.600;6.138;2022-11-18T03:14:58;4.38;;;2.50;;
37645;SDS011;23489;49.600;6.138;2022-11-18T03:23:58;5.15;;;2.53;;
37645;SDS011;23489;49.600;6.138;2022-11-18T03:26:37;4.53;;;2.42;;
37645;SDS011;23489;49.600;6.138;2022-11-18T03:29:07;3.63;;;2.38;;
37645;SDS011;23489;49.600;6.138;2022-11-18T03:31:40;4.35;;;2.78;;
37645;SDS011;23489;49.600;6.138;2022-11-18T03:34:16;4.15;;;2.22;;
37645;SDS011;23489;49.600;6.138;2022-11-18T03:36:52;3.85;;;2.20;;
37645;SDS011;23489;49.600;6.138;2022-11-18T03:39:22;4.00;;;2.40;;
37645;SDS011;23489;49.600;6.138;2022-11-18T03:41:53;3.90;;;2.30;;
37645;SDS011;23489;49.600;6.138;2022-11-18T03:44:29;4.90;;;2.40;;
37645;SDS011;23489;49.600;6.138;2022-11-18T03:47:16;4.10;;;2.33;;
37645;SDS011;23489;49.600;6.138;2022-11-18T03:50:00;6.72;;;2.08;;
37645;SDS011;23489;49.600;6.138;2022-11-18T03:52:36;6.05;;;2.03;;
37645;SDS011;23489;49.600;6.138;2022-11-18T03:58:25;4.07;;;2.08;;
37645;SDS011;23489;49.600;6.138;2022-11-18T04:01:04;3.10;;;2.10;;
37645;SDS011;23489;49.600;6.138;2022-11-18T04:03:37;4.82;;;1.95;;
37645;SDS011;23489;49.600;6.138;2022-11-18T04:06:04;4.93;;;2.28;;
37645;SDS011;23489;49.600;6.138;2022-11-18T04:08:35;6.57;;;2.40;;
37645;SDS011;23489;49.600;6.138;2022-11-18T04:13:59;6.35;;;2.13;;
37645;SDS011;23489;49.600;6.138;2022-11-18T04:16:25;5.35;;;2.20;;
37645;SDS011;23489;49.600;6.138;2022-11-18T04:18:51;5.25;;;2.50;;
37645;SDS011;23489;49.600;6.138;2022-11-18T04:21:16;4.47;;;2.33;;
37645;SDS011;23489;49.600;6.138;2022-11-18T04:23:42;7.10;;;2.47;;
37645;SDS011;23489;49.600;6.138;2022-11-18T04:26:08;4.88;;;2.50;;
37645;SDS011;23489;49.600;6.138;2022-11-18T04:28:35;3.20;;;2.47;;
37645;SDS011;23489;49.600;6.138;2022-11-18T04:31:01;9.48;;;3.00;;
37645;SDS011;23489;49.600;6.138;2022-11-18T04:33:27;5.10;;;2.58;;
37645;SDS011;23489;49.600;6.138;2022-11-18T04:35:52;3.83;;;2.83;;
37645;SDS011;23489;49.600;6.138;2022-11-18T04:38:18;3.85;;;2.50;;
37645;SDS011;23489;49.600;6.138;2022-11-18T04:40:44;6.43;;;2.65;;
37645;SDS011;23489;49.600;6.138;2022-11-18T04:43:10;7.28;;;2.90;;
37645;SDS011;23489;49.600;6.138;2022-11-18T04:45:36;5.57;;;2.63;;
37645;SDS011;23489;49.600;6.138;2022-11-18T04:48:02;8.50;;;2.60;;
37645;SDS011;23489;49.600;6.138;2022-11-18T04:50:27;4.78;;;2.70;;
37645;SDS011;23489;49.600;6.138;2022-11-18T04:52:53;6.55;;;2.90;;
37645;SDS011;23489;49.600;6.138;2022-11-18T04:55:18;6.95;;;2.70;;
37645;SDS011;23489;49.600;6.138;2022-11-18T04:57:44;6.20;;;2.80;;
37645;SDS011;23489;49.600;6.138;2022-11-18T05:00:10;6.63;;;2.85;;
37645;SDS011;23489;49.600;6.138;2022-11-18T05:02:36;4.38;;;2.72;;
37645;SDS011;23489;49.600;6.138;2022-11-18T05:05:01;7.70;;;3.00;;
37645;SDS011;23489;49.600;6.138;2022-11-18T05:07:27;5.43;;;3.10;;
37645;SDS011;23489;49.600;6.138;2022-11-18T05:09:53;8.13;;;3.33;;
37645;SDS011;23489;49.600;6.138;2022-11-18T05:12:18;5.38;;;3.30;;
37645;SDS011;23489;49.600;6.138;2022-11-18T05:15:03;7.53;;;3.00;;
37645;SDS011;23489;49.600;6.138;2022-11-18T05:17:29;5.93;;;3.60;;
37645;SDS011;23489;49.600;6.138;2022-11-18T05:19:54;3.90;;;3.00;;
37645;SDS011;23489;49.600;6.138;2022-11-18T05:22:20;7.85;;;3.38;;
37645;SDS011;23489;49.600;6.138;2022-11-18T05:24:46;6.40;;;3.45;;
37645;SDS011;23489;49.600;6.138;2022-11-18T05:27:12;4.55;;;2.88;;
37645;SDS011;23489;49.600;6.138;2022-11-18T05:29:38;3.08;;;2.70;;
37645;SDS011;23489;49.600;6.138;2022-11-18T05:32:04;6.22;;;3.38;;
37645;SDS011;23489;49.600;6.138;2022-11-18T05:34:30;5.95;;;3.40;;
37645;SDS011;23489;49.600;6.138;2022-11-18T05:36:55;6.32;;;3.33;;
37645;SDS011;23489;49.600;6.138;2022-11-18T05:39:21;8.98;;;3.60;;
37645;SDS011;23489;49.600;6.138;2022-11-18T05:41:47;8.32;;;4.13;;
37645;SDS011;23489;49.600;6.138;2022-11-18T05:44:31;7.25;;;3.97;;
37645;SDS011;23489;49.600;6.138;2022-11-18T05:46:57;7.53;;;3.63;;
37645;SDS011;23489;49.600;6.138;2022-11-18T05:49:22;6.45;;;4.07;;
37645;SDS011;23489;49.600;6.138;2022-11-18T05:51:48;7.43;;;3.40;;
37645;SDS011;23489;49.600;6.138;2022-11-18T05:54:14;5.07;;;3.47;;
37645;SDS011;23489;49.600;6.138;2022-11-18T05:56:43;8.73;;;3.58;;
37645;SDS011;23489;49.600;6.138;2022-11-18T05:59:09;6.35;;;3.40;;
37645;SDS011;23489;49.600;6.138;2022-11-18T06:01:45;5.85;;;3.38;;
37645;SDS011;23489;49.600;6.138;2022-11-18T06:04:23;5.63;;;3.67;;
37645;SDS011;23489;49.600;6.138;2022-11-18T06:09:37;5.38;;;4.32;;
37645;SDS011;23489;49.600;6.138;2022-11-18T06:12:05;4.53;;;3.38;;
37645;SDS011;23489;49.600;6.138;2022-11-18T06:14:39;5.28;;;3.80;;
37645;SDS011;23489;49.600;6.138;2022-11-18T06:17:09;8.13;;;3.80;;
37645;SDS011;23489;49.600;6.138;2022-11-18T06:19:40;6.47;;;4.28;;
37645;SDS011;23489;49.600;6.138;2022-11-18T06:22:06;9.98;;;4.30;;
37645;SDS011;23489;49.600;6.138;2022-11-18T06:24:32;7.28;;;3.97;;
37645;SDS011;23489;49.600;6.138;2022-11-18T06:26:58;8.38;;;3.75;;
37645;SDS011;23489;49.600;6.138;2022-11-18T06:29:24;7.30;;;3.75;;
37645;SDS011;23489;49.600;6.138;2022-11-18T06:31:50;5.28;;;3.30;;
37645;SDS011;23489;49.600;6.138;2022-11-18T06:34:16;7.53;;;3.83;;
37645;SDS011;23489;49.600;6.138;2022-11-18T06:36:42;5.72;;;3.17;;
37645;SDS011;23489;49.600;6.138;2022-11-18T06:39:07;8.75;;;4.05;;
37645;SDS011;23489;49.600;6.138;2022-11-18T06:41:33;8.85;;;3.72;;
37645;SDS011;23489;49.600;6.138;2022-11-18T06:43:59;8.50;;;3.78;;
37645;SDS011;23489;49.600;6.138;2022-11-18T06:46:25;8.95;;;3.80;;
37645;SDS011;23489;49.600;6.138;2022-11-18T06:49:20;7.80;;;3.63;;
37645;SDS011;23489;49.600;6.138;2022-11-18T06:51:46;7.20;;;3.92;;
37645;SDS011;23489;49.600;6.138;2022-11-18T06:54:12;5.13;;;3.50;;
37645;SDS011;23489;49.600;6.138;2022-11-18T06:56:38;5.15;;;3.85;;
37645;SDS011;23489;49.600;6.138;2022-11-18T06:59:04;5.93;;;3.70;;
37645;SDS011;23489;49.600;6.138;2022-11-18T07:01:30;10.18;;;3.80;;
37645;SDS011;23489;49.600;6.138;2022-11-18T07:03:58;7.97;;;4.30;;
37645;SDS011;23489;49.600;6.138;2022-11-18T07:06:25;7.50;;;3.95;;
37645;SDS011;23489;49.600;6.138;2022-11-18T07:08:52;11.32;;;4.40;;
37645;SDS011;23489;49.600;6.138;2022-11-18T07:11:19;8.35;;;4.43;;
37645;SDS011;23489;49.600;6.138;2022-11-18T07:13:47;5.38;;;3.83;;
37645;SDS011;23489;49.600;6.138;2022-11-18T07:16:19;5.95;;;3.88;;
37645;SDS011;23489;49.600;6.138;2022-11-18T07:18:47;5.97;;;3.70;;
37645;SDS011;23489;49.600;6.138;2022-11-18T07:21:21;5.95;;;4.05;;
37645;SDS011;23489;49.600;6.138;2022-11-18T07:23:48;7.88;;;3.92;;
37645;SDS011;23489;49.600;6.138;2022-11-18T07:26:14;5.97;;;3.60;;
37645;SDS011;23489;49.600;6.138;2022-11-18T07:28:40;5.20;;;3.75;;
37645;SDS011;23489;49.600;6.138;2022-11-18T07:31:07;6.43;;;3.55;;
37645;SDS011;23489;49.600;6.138;2022-11-18T07:33:38;9.73;;;4.10;;
37645;SDS011;23489;49.600;6.138;2022-11-18T07:36:18;5.95;;;4.18;;
37645;SDS011;23489;49.600;6.138;2022-11-18T07:38:49;9.82;;;4.38;;
37645;SDS011;23489;49.600;6.138;2022-11-18T07:41:17;8.85;;;4.15;;
37645;SDS011;23489;49.600;6.138;2022-11-18T07:43:45;6.57;;;4.20;;
37645;SDS011;23489;49.600;6.138;2022-11-18T07:46:15;6.35;;;3.70;;
37645;SDS011;23489;49.600;6.138;2022-11-18T07:48:46;3.90;;;3.13;;
37645;SDS011;23489;49.600;6.138;2022-11-18T07:51:14;7.28;;;5.68;;
37645;SDS011;23489;49.600;6.138;2022-11-18T07:53:41;7.18;;;3.97;;
37645;SDS011;23489;49.600;6.138;2022-11-18T07:56:07;5.57;;;3.25;;
37645;SDS011;23489;49.600;6.138;2022-11-18T07:58:34;6.78;;;2.80;;
37645;SDS011;23489;49.600;6.138;2022-11-18T08:01:07;5.20;;;2.80;;
37645;SDS011;23489;49.600;6.138;2022-11-18T08:03:34;6.72;;;3.38;;
37645;SDS011;23489;49.600;6.138;2022-11-18T08:06:01;8.85;;;5.13;;
37645;SDS011;23489;49.600;6.138;2022-11-18T08:08:27;5.25;;;3.50;;
37645;SDS011;23489;49.600;6.138;2022-11-18T08:10:56;8.52;;;4.03;;
37645;SDS011;23489;49.600;6.138;2022-11-18T08:13:24;7.60;;;3.85;;
37645;SDS011;23489;49.600;6.138;2022-11-18T08:15:51;5.72;;;4.25;;
37645;SDS011;23489;49.600;6.138;2022-11-18T08:18:17;8.98;;;3.50;;
37645;SDS011;23489;49.600;6.138;2022-11-18T08:20:43;10.23;;;3.90;;
37645;SDS011;23489;49.600;6.138;2022-11-18T08:23:10;6.60;;;3.33;;
37645;SDS011;23489;49.600;6.138;2022-11-18T08:25:36;7.43;;;3.13;;
37645;SDS011;23489;49.600;6.138;2022-11-18T08:28:02;5.32;;;3.00;;
37645;SDS011;23489;49.600;6.138;2022-11-18T08:30:27;6.18;;;3.00;;
37645;SDS011;23489;49.600;6.138;2022-11-18T08:32:53;12.20;;;3.90;;
37645;SDS011;23489;49.600;6.138;2022-11-18T08:35:19;10.20;;;5.72;;
37645;SDS011;23489;49.600;6.138;2022-11-18T09:16:45;8.95;;;3.22;;
37645;SDS011;23489;49.600;6.138;2022-11-18T09:19:10;5.88;;;3.67;;
37645;SDS011;23489;49.600;6.138;2022-11-18T09:21:36;12.55;;;3.42;;
37645;SDS011;23489;49.600;6.138;2022-11-18T09:24:02;8.20;;;4.55;;
37645;SDS011;23489;49.600;6.138;2022-11-18T09:26:29;6.18;;;3.30;;
37645;SDS011;23489;49.600;6.138;2022-11-18T11:02:57;4.88;;;1.90;;
37645;SDS011;23489;49.600;6.138;2022-11-18T11:05:23;6.47;;;2.17;;
37645;SDS011;23489;49.600;6.138;2022-11-18T11:08:01;4.82;;;1.90;;
37645;SDS011;23489;49.600;6.138;2022-11-18T11:10:28;3.05;;;1.65;;
37645;SDS011;23489;49.600;6.138;2022-11-18T11:13:00;17.10;;;3.25;;
37645;SDS011;23489;49.600;6.138;2022-11-18T11:15:35;11.90;;;2.67;;
37645;SDS011;23489;49.600;6.138;2022-11-18T11:18:05;28.45;;;4.65;;
37645;SDS011;23489;49.600;6.138;2022-11-18T11:20:55;4.47;;;1.90;;
37645;SDS011;23489;49.600;6.138;2022-11-18T11:23:24;7.50;;;2.28;;
37645;SDS011;23489;49.600;6.138;2022-11-18T11:25:58;5.80;;;1.95;;
37645;SDS011;23489;49.600;6.138;2022-11-18T11:28:28;4.60;;;1.75;;
37645;SDS011;23489;49.600;6.138;2022-11-18T11:31:26;3.30;;;2.05;;
37645;SDS011;23489;49.600;6.138;2022-11-18T11:34:17;5.00;;;2.25;;
37645;SDS011;23489;49.600;6.138;2022-11-18T11:53:56;6.50;;;2.60;;
37645;SDS011;23489;49.600;6.138;2022-11-18T11:56:50;5.72;;;2.45;;
37645;SDS011;23489;49.600;6.138;2022-11-18T11:59:26;5.63;;;1.80;;
37645;SDS011;23489;49.600;6.138;2022-11-18T12:04:56;2.55;;;1.67;;
37645;SDS011;23489;49.600;6.138;2022-11-18T12:07:29;5.63;;;2.40;;
37645;SDS011;23489;49.600;6.138;2022-11-18T12:18:10;5.50;;;2.83;;
37645;SDS011;23489;49.600;6.138;2022-11-18T12:20:49;7.95;;;2.30;;
37645;SDS011;23489;49.600;6.138;2022-11-18T12:25:54;14.00;;;3.72;;
37645;SDS011;23489;49.600;6.138;2022-11-18T12:33:43;6.53;;;2.70;;
37645;SDS011;23489;49.600;6.138;2022-11-18T12:38:58;3.25;;;1.70;;
37645;SDS011;23489;49.600;6.138;2022-11-18T12:44:28;4.93;;;2.30;;
37645;SDS011;23489;49.600;6.138;2022-11-18T12:47:00;5.53;;;2.17;;
37645;SDS011;23489;49.600;6.138;2022-11-18T12:51:53;13.30;;;6.50;;
37645;SDS011;23489;49.600;6.138;2022-11-18T12:54:30;5.70;;;2.20;;
37645;SDS011;23489;49.600;6.138;2022-11-18T12:57:01;4.90;;;2.78;;
37645;SDS011;23489;49.600;6.138;2022-11-18T12:59:39;4.10;;;2.55;;
37645;SDS011;23489;49.600;6.138;2022-11-18T13:04:39;7.30;;;2.85;;
37645;SDS011;23489;49.600;6.138;2022-11-18T13:07:05;4.07;;;2.13;;
37645;SDS011;23489;49.600;6.138;2022-11-18T13:09:53;5.63;;;1.90;;
37645;SDS011;23489;49.600;6.138;2022-11-18T13:12:20;8.13;;;2.38;;
37645;SDS011;23489;49.600;6.138;2022-11-18T13:14:48;3.97;;;2.35;;
37645;SDS011;23489;49.600;6.138;2022-11-18T13:17:37;5.05;;;2.20;;
37645;SDS011;23489;49.600;6.138;2022-11-18T13:20:24;4.57;;;2.08;;
37645;SDS011;23489;49.600;6.138;2022-11-18T13:23:45;5.35;;;2.42;;
37645;SDS011;23489;49.600;6.138;2022-11-18T13:29:07;4.20;;;2.13;;
37645;SDS011;23489;49.600;6.138;2022-11-18T13:34:22;4.20;;;2.17;;
37645;SDS011;23489;49.600;6.138;2022-11-18T13:36:51;5.45;;;2.00;;
37645;SDS011;23489;49.600;6.138;2022-11-18T13:39:25;4.53;;;2.20;;
37645;SDS011;23489;49.600;6.138;2022-11-18T13:42:00;7.80;;;2.55;;
37645;SDS011;23489;49.600;6.138;2022-11-18T13:44:31;7.40;;;2.60;;
37645;SDS011;23489;49.600;6.138;2022-11-18T13:52:04;4.47;;;2.35;;
37645;SDS011;23489;49.600;6.138;2022-11-18T13:54:39;3.85;;;2.30;;
37645;SDS011;23489;49.600;6.138;2022-11-18T13:57:12;11.30;;;5.57;;
37645;SDS011;23489;49.600;6.138;2022-11-18T13:59:43;9.13;;;3.50;;
37645;SDS011;23489;49.600;6.138;2022-11-18T14:02:11;7.68;;;2.85;;
37645;SDS011;23489;49.600;6.138;2022-11-18T14:04:39;18.02;;;4.35;;
37645;SDS011;23489;49.600;6.138;2022-11-18T14:07:22;5.63;;;3.13;;
37645;SDS011;23489;49.600;6.138;2022-11-18T14:10:07;7.03;;;2.70;;
37645;SDS011;23489;49.600;6.138;2022-11-18T14:12:35;12.32;;;3.28;;
37645;SDS011;23489;49.600;6.138;2022-11-18T14:15:11;15.90;;;2.97;;
37645;SDS011;23489;49.600;6.138;2022-11-18T14:17:57;9.95;;;5.28;;
37645;SDS011;23489;49.600;6.138;2022-11-18T14:20:25;5.35;;;2.70;;
37645;SDS011;23489;49.600;6.138;2022-11-18T14:22:56;7.80;;;3.50;;
37645;SDS011;23489;49.600;6.138;2022-11-18T14:27:56;7.00;;;3.95;;
37645;SDS011;23489;49.600;6.138;2022-11-18T14:30:56;6.40;;;2.97;;
37645;SDS011;23489;49.600;6.138;2022-11-18T14:33:25;7.07;;;3.17;;
37645;SDS011;23489;49.600;6.138;2022-11-18T14:35:59;6.05;;;3.10;;
37645;SDS011;23489;49.600;6.138;2022-11-18T14:38:30;8.27;;;2.30;;
37645;SDS011;23489;49.600;6.138;2022-11-18T14:41:00;6.10;;;2.65;;
37645;SDS011;23489;49.600;6.138;2022-11-18T14:43:27;4.13;;;2.20;;
37645;SDS011;23489;49.600;6.138;2022-11-18T14:46:00;7.55;;;2.30;;
37645;SDS011;23489;49.600;6.138;2022-11-18T14:48:28;4.72;;;1.90;;
37645;SDS011;23489;49.600;6.138;2022-11-18T14:50:56;3.40;;;1.63;;
37645;SDS011;23489;49.600;6.138;2022-11-18T14:53:21;4.88;;;2.20;;
37645;SDS011;23489;49.600;6.138;2022-11-18T14:55:48;3.47;;;1.95;;
37645;SDS011;23489;49.600;6.138;2022-11-18T14:58:18;5.32;;;2.30;;
37645;SDS011;23489;49.600;6.138;2022-11-18T15:00:45;6.82;;;2.30;;
37645;SDS011;23489;49.600;6.138;2022-11-18T15:03:12;6.68;;;2.20;;
37645;SDS011;23489;49.600;6.138;2022-11-18T15:05:38;4.57;;;1.98;;
37645;SDS011;23489;49.600;6.138;2022-11-18T15:08:05;6.00;;;2.80;;
37645;SDS011;23489;49.600;6.138;2022-11-18T15:10:31;7.25;;;2.63;;
37645;SDS011;23489;49.600;6.138;2022-11-18T15:12:57;6.00;;;2.17;;
37645;SDS011;23489;49.600;6.138;2022-11-18T15:15:22;6.40;;;2.17;;
37645;SDS011;23489;49.600;6.138;2022-11-18T15:17:48;5.65;;;2.00;;
37645;SDS011;23489;49.600;6.138;2022-11-18T15:20:15;7.15;;;2.40;;
37645;SDS011;23489;49.600;6.138;2022-11-18T15:22:42;8.20;;;2.20;;
37645;SDS011;23489;49.600;6.138;2022-11-18T15:25:08;8.38;;;2.40;;
37645;SDS011;23489;49.600;6.138;2022-11-18T15:27:34;7.15;;;2.30;;
37645;SDS011;23489;49.600;6.138;2022-11-18T15:30:00;8.63;;;2.10;;
37645;SDS011;23489;49.600;6.138;2022-11-18T15:32:25;6.10;;;2.10;;
37645;SDS011;23489;49.600;6.138;2022-11-18T15:34:51;5.97;;;1.85;;
37645;SDS011;23489;49.600;6.138;2022-11-18T15:37:17;10.80;;;6.00;;
37645;SDS011;23489;49.600;6.138;2022-11-18T15:39:42;9.50;;;3.25;;
37645;SDS011;23489;49.600;6.138;2022-11-18T15:42:08;6.55;;;2.42;;
37645;SDS011;23489;49.600;6.138;2022-11-18T15:44:35;8.25;;;4.57;;
37645;SDS011;23489;49.600;6.138;2022-11-18T15:47:01;4.70;;;2.38;;
37645;SDS011;23489;49.600;6.138;2022-11-18T15:49:27;11.13;;;3.83;;
37645;SDS011;23489;49.600;6.138;2022-11-18T15:51:52;11.43;;;3.47;;
37645;SDS011;23489;49.600;6.138;2022-11-18T15:54:18;11.90;;;2.92;;
37645;SDS011;23489;49.600;6.138;2022-11-18T15:56:44;6.53;;;2.33;;
37645;SDS011;23489;49.600;6.138;2022-11-18T15:59:13;4.20;;;2.00;;
37645;SDS011;23489;49.600;6.138;2022-11-18T16:01:41;4.85;;;2.58;;
37645;SDS011;23489;49.600;6.138;2022-11-18T16:04:08;8.43;;;2.97;;
37645;SDS011;23489;49.600;6.138;2022-11-18T16:06:36;6.30;;;2.50;;
37645;SDS011;23489;49.600;6.138;2022-11-18T16:09:02;6.88;;;2.30;;
37645;SDS011;23489;49.600;6.138;2022-11-18T16:11:29;6.55;;;2.90;;
37645;SDS011;23489;49.600;6.138;2022-11-18T16:14:14;3.42;;;2.25;;
37645;SDS011;23489;49.600;6.138;2022-11-18T16:16:42;5.38;;;2.53;;
37645;SDS011;23489;49.600;6.138;2022-11-18T16:19:09;4.65;;;2.47;;
37645;SDS011;23489;49.600;6.138;2022-11-18T16:21:38;6.13;;;2.60;;
37645;SDS011;23489;49.600;6.138;2022-11-18T16:24:06;5.07;;;2.75;;
37645;SDS011;23489;49.600;6.138;2022-11-18T16:26:33;5.25;;;2.90;;
37645;SDS011;23489;49.600;6.138;2022-11-18T16:29:01;7.72;;;2.78;;
37645;SDS011;23489;49.600;6.138;2022-11-18T16:31:27;6.75;;;2.80;;
37645;SDS011;23489;49.600;6.138;2022-11-18T16:36:44;7.80;;;2.88;;
37645;SDS011;23489;49.600;6.138;2022-11-18T16:41:38;5.95;;;3.53;;
37645;SDS011;23489;49.600;6.138;2022-11-18T16:44:05;5.75;;;3.85;;
37645;SDS011;23489;49.600;6.138;2022-11-18T16:46:33;8.43;;;3.65;;
37645;SDS011;23489;49.600;6.138;2022-11-18T16:49:00;5.78;;;4.20;;
37645;SDS011;23489;49.600;6.138;2022-11-18T16:51:27;6.78;;;4.22;;
37645;SDS011;23489;49.600;6.138;2022-11-18T16:53:55;7.13;;;4.50;;
37645;SDS011;23489;49.600;6.138;2022-11-18T16:56:23;8.50;;;4.63;;
37645;SDS011;23489;49.600;6.138;2022-11-18T16:58:58;6.28;;;4.20;;
37645;SDS011;23489;49.600;6.138;2022-11-18T17:01:28;7.88;;;4.35;;
37645;SDS011;23489;49.600;6.138;2022-11-18T17:03:55;8.45;;;4.28;;
37645;SDS011;23489;49.600;6.138;2022-11-18T17:06:21;9.98;;;4.20;;
37645;SDS011;23489;49.600;6.138;2022-11-18T17:08:49;9.75;;;4.40;;
37645;SDS011;23489;49.600;6.138;2022-11-18T17:11:15;5.97;;;3.90;;
37645;SDS011;23489;49.600;6.138;2022-11-18T17:13:41;4.57;;;3.70;;
37645;SDS011;23489;49.600;6.138;2022-11-18T17:16:11;6.57;;;3.50;;
37645;SDS011;23489;49.600;6.138;2022-11-18T17:18:39;4.57;;;3.25;;
37645;SDS011;23489;49.600;6.138;2022-11-18T17:21:05;6.82;;;3.65;;
37645;SDS011;23489;49.600;6.138;2022-11-18T17:23:36;10.65;;;4.00;;
37645;SDS011;23489;49.600;6.138;2022-11-18T17:26:02;6.55;;;3.33;;
37645;SDS011;23489;49.600;6.138;2022-11-18T17:28:29;6.13;;;3.53;;
37645;SDS011;23489;49.600;6.138;2022-11-18T17:30:55;6.40;;;3.75;;
37645;SDS011;23489;49.600;6.138;2022-11-18T17:33:21;7.18;;;3.58;;
37645;SDS011;23489;49.600;6.138;2022-11-18T17:36:00;7.85;;;3.78;;
37645;SDS011;23489;49.600;6.138;2022-11-18T17:38:27;7.30;;;3.63;;
37645;SDS011;23489;49.600;6.138;2022-11-18T17:40:54;9.00;;;3.60;;
37645;SDS011;23489;49.600;6.138;2022-11-18T17:43:21;5.93;;;3.40;;
37645;SDS011;23489;49.600;6.138;2022-11-18T17:45:49;5.45;;;3.28;;
37645;SDS011;23489;49.600;6.138;2022-11-18T17:48:19;8.77;;;3.53;;
37645;SDS011;23489;49.600;6.138;2022-11-18T17:50:45;7.55;;;3.83;;
37645;SDS011;23489;49.600;6.138;2022-11-18T17:53:12;7.55;;;3.78;;
37645;SDS011;23489;49.600;6.138;2022-11-18T17:55:38;5.97;;;3.65;;
37645;SDS011;23489;49.600;6.138;2022-11-18T17:58:04;7.45;;;3.92;;
37645;SDS011;23489;49.600;6.138;2022-11-18T18:00:30;7.05;;;3.50;;
37645;SDS011;23489;49.600;6.138;2022-11-18T18:02:56;9.18;;;4.20;;
37645;SDS011;23489;49.600;6.138;2022-11-18T18:05:22;5.85;;;4.32;;
37645;SDS011;23489;49.600;6.138;2022-11-18T18:07:48;7.60;;;4.97;;
37645;SDS011;23489;49.600;6.138;2022-11-18T18:10:15;6.78;;;4.32;;
37645;SDS011;23489;49.600;6.138;2022-11-18T18:12:41;8.13;;;4.03;;
37645;SDS011;23489;49.600;6.138;2022-11-18T18:15:26;5.35;;;3.67;;
37645;SDS011;23489;49.600;6.138;2022-11-18T18:17:52;6.03;;;3.90;;
37645;SDS011;23489;49.600;6.138;2022-11-18T18:20:17;5.65;;;3.92;;
37645;SDS011;23489;49.600;6.138;2022-11-18T18:22:43;14.65;;;8.32;;
37645;SDS011;23489;49.600;6.138;2022-11-18T18:25:09;7.10;;;4.72;;
37645;SDS011;23489;49.600;6.138;2022-11-18T18:27:36;6.93;;;3.90;;
37645;SDS011;23489;49.600;6.138;2022-11-18T18:30:02;5.65;;;4.25;;
37645;SDS011;23489;49.600;6.138;2022-11-18T18:32:29;5.10;;;3.70;;
37645;SDS011;23489;49.600;6.138;2022-11-18T18:34:54;7.50;;;3.55;;
37645;SDS011;23489;49.600;6.138;2022-11-18T18:37:20;4.78;;;3.45;;
37645;SDS011;23489;49.600;6.138;2022-11-18T18:39:46;7.25;;;3.40;;
37645;SDS011;23489;49.600;6.138;2022-11-18T18:42:11;5.13;;;3.38;;
37645;SDS011;23489;49.600;6.138;2022-11-18T18:44:37;7.63;;;3.80;;
37645;SDS011;23489;49.600;6.138;2022-11-18T18:47:22;6.38;;;4.05;;
37645;SDS011;23489;49.600;6.138;2022-11-18T18:49:47;5.70;;;3.88;;